Terminal Aerodrome Forecast
Issued by NWS

Home | Current Version | Previous Version | Text Only | Print | Product List | Glossary On
Versions: 1 2 3 4 5 6 7 8 9 10 11 12 13 14 15 16 17 18 19 20
000
FTUS41 KBTV 262333
TAFPBG
TAF
KPBG 262333Z 2700/2724 15009KT P6SM VCSH OVC035
      TEMPO 2700/2702 5SM -SHRA OVC030
     FM270200 16011G18KT 6SM -RA BR OVC030
     FM271000 16012G21KT 3SM -RA BR OVC015
     FM271500 16011G17KT 3SM -RA BR OVC010
     FM272000 16008KT P6SM OVC008=

USA.gov is the U.S. government's official web portal to all federal, state and local government web resources and services.